Constantine, Algeria
Current Conditions -  °F | °C
As of 5:30 AM on Thursday 27 Nov 2014 (Local Time) from DABC Reporting Station
Clear Clear  
Wind Chill: 44°   Ceiling: Unl
Heat Index: 46°   Visibility: 6mi
Dew Point: 43°   Wind: 5mph
Humidity: 87%   Direction: 240°WSW
Pressure: 29.88"   Gusts: NA
Location:  36.36°N, 6.6°E
Report Text: DABC 270430Z 24004KT CAVOK 08/06 Q1012
Loading
Personal Weather Stations






























Interactive Weather Map New forecast layout! Learn more

10-Day Weather Forecast

Advertisements
Track Severe Weather on mobile